Time;durP1;ratioP1;P1;durP2;ratioP2;P2;SDS_P1;SDS_P2;PMS_P1;PMS_P2;Temp;Humidity;BMP_temperature;BMP_pressure;BME280_temperature;BME280_humidity;BME280_pressure;Samples;Min_cycle;Max_cycle;Signal;HPM_P1;HPM_P2
2021/08/27 00:02:06;;;;;;;4.50;4.10;;;13.60;99.90;;;;;;5020215;28;20270;-54
2021/08/27 00:04:32;;;;;;;4.10;3.80;;;13.50;99.90;;;;;;5029558;28;20183;-55
2021/08/27 00:06:58;;;;;;;4.20;3.87;;;13.30;99.90;;;;;;5023709;28;20186;-54
2021/08/27 00:09:24;;;;;;;4.53;4.13;;;13.40;99.90;;;;;;5028446;28;20988;-57
2021/08/27 00:11:49;;;;;;;5.10;4.60;;;13.30;99.90;;;;;;5024335;28;20708;-48
2021/08/27 00:14:15;;;;;;;7.37;6.77;;;13.40;99.90;;;;;;5029234;28;20650;-53
2021/08/27 00:16:41;;;;;;;4.53;4.13;;;13.40;99.90;;;;;;5025001;28;20232;-53
2021/08/27 00:19:07;;;;;;;5.30;4.90;;;13.40;99.90;;;;;;5021282;28;20932;-54
2021/08/27 00:21:32;;;;;;;4.63;4.10;;;13.30;99.90;;;;;;5029756;28;20191;-57
2021/08/27 00:23:58;;;;;;;4.87;4.40;;;13.30;99.90;;;;;;5026548;28;20199;-55
2021/08/27 00:26:23;;;;;;;5.23;4.73;;;13.30;99.90;;;;;;5029925;28;20216;-54
2021/08/27 00:28:49;;;;;;;5.90;5.30;;;13.30;99.90;;;;;;5026747;28;20282;-55
2021/08/27 00:31:14;;;;;;;5.47;4.97;;;13.30;99.90;;;;;;5018931;28;20624;-56
2021/08/27 00:33:40;;;;;;;6.40;5.17;;;13.20;99.90;;;;;;5022522;28;20195;-55
2021/08/27 00:36:05;;;;;;;5.57;5.03;;;13.20;99.90;;;;;;5031712;28;20650;-54
2021/08/27 00:38:31;;;;;;;5.77;4.90;;;13.30;99.90;;;;;;5017950;28;20187;-52
2021/08/27 00:40:56;;;;;;;5.10;4.70;;;13.30;99.90;;;;;;5032805;28;20590;-55
2021/08/27 00:43:22;;;;;;;6.10;4.97;;;13.30;99.90;;;;;;5027062;28;20206;-53
2021/08/27 00:45:48;;;;;;;5.57;5.07;;;13.30;99.90;;;;;;5028622;28;20230;-51
2021/08/27 00:48:14;;;;;;;5.13;4.13;;;13.30;99.90;;;;;;5031511;28;20187;-50
2021/08/27 00:50:40;;;;;;;5.20;4.70;;;13.40;99.90;;;;;;5031620;28;20210;-55
2021/08/27 00:53:06;;;;;;;4.67;4.20;;;13.40;99.90;;;;;;5031576;28;20486;-58
2021/08/27 00:55:32;;;;;;;4.53;4.00;;;13.30;99.90;;;;;;5030926;28;20198;-55
2021/08/27 00:57:57;;;;;;;5.10;4.60;;;13.30;99.90;;;;;;5025670;28;20434;-54
2021/08/27 01:00:23;;;;;;;4.60;4.10;;;13.40;99.90;;;;;;5028985;28;20226;-54
2021/08/27 01:02:50;;;;;;;4.60;4.20;;;13.30;99.90;;;;;;5031433;28;20285;-53
2021/08/27 01:05:16;;;;;;;4.37;3.97;;;13.20;99.90;;;;;;5029377;28;20954;-53
2021/08/27 01:07:56;;;;;;;4.97;4.13;;;13.30;99.90;;;;;;5031011;28;20435;-52
2021/08/27 01:10:36;;;;;;;4.57;4.17;;;13.20;99.90;;;;;;5032528;28;20460;-52
2021/08/27 01:13:13;;;;;;;5.53;5.03;;;13.30;99.90;;;;;;5030870;28;20429;-54
2021/08/27 01:15:45;;;;;;;4.80;4.40;;;13.30;99.90;;;;;;5022178;28;20439;-56
2021/08/27 01:18:27;;;;;;;7.10;5.03;;;13.40;99.90;;;;;;5027089;28;20457;-54
2021/08/27 01:21:19;;;;;;;5.43;4.40;;;13.40;99.90;;;;;;5027086;28;20435;-56
2021/08/27 01:23:49;;;;;;;5.80;5.20;;;13.40;99.90;;;;;;5023746;28;20440;-55
2021/08/27 01:26:18;;;;;;;6.43;4.93;;;13.40;99.90;;;;;;5030388;28;20433;-55
2021/08/27 01:28:49;;;;;;;5.10;4.43;;;13.40;99.90;;;;;;5023872;28;20437;-53
2021/08/27 01:31:23;;;;;;;4.97;4.50;;;13.30;99.90;;;;;;5030807;28;20785;-51
2021/08/27 01:34:18;;;;;;;5.80;5.30;;;13.30;99.90;;;;;;5026613;28;20511;-53
2021/08/27 01:36:46;;;;;;;6.07;5.57;;;13.30;99.90;;;;;;5030480;28;20417;-54
2021/08/27 01:39:13;;;;;;;6.70;6.00;;;13.40;99.90;;;;;;5031066;28;20947;-54
2021/08/27 01:41:41;;;;;;;6.00;5.50;;;13.30;99.90;;;;;;5021931;28;20555;-55
2021/08/27 01:44:10;;;;;;;6.30;5.70;;;13.30;99.90;;;;;;5014110;28;20430;-54
2021/08/27 01:46:38;;;;;;;6.30;5.80;;;13.20;99.90;;;;;;5013016;28;20430;-55
2021/08/27 01:49:06;;;;;;;6.33;5.60;;;13.10;99.90;;;;;;5029875;28;20445;-54
2021/08/27 01:51:35;;;;;;;6.57;5.57;;;13.20;99.90;;;;;;5022048;28;20477;-55
2021/08/27 01:54:02;;;;;;;7.57;6.10;;;13.00;99.90;;;;;;5026968;28;20495;-54
2021/08/27 01:56:28;;;;;;;6.47;5.87;;;13.00;99.90;;;;;;5028632;28;20432;-52
2021/08/27 01:58:56;;;;;;;5.93;5.43;;;13.00;99.90;;;;;;5030731;28;20410;-54
2021/08/27 02:01:24;;;;;;;5.80;5.27;;;13.00;99.90;;;;;;5029177;28;20884;-54
2021/08/27 02:03:52;;;;;;;5.87;5.37;;;12.90;99.90;;;;;;5023846;28;20502;-55
2021/08/27 02:06:19;;;;;;;5.20;4.60;;;12.90;99.90;;;;;;5020019;28;20806;-53
2021/08/27 02:08:46;;;;;;;5.63;4.67;;;12.90;99.90;;;;;;5023566;28;20450;-53
2021/08/27 02:11:12;;;;;;;5.17;4.77;;;13.00;99.90;;;;;;5019260;28;20469;-50
2021/08/27 02:13:38;;;;;;;5.47;4.97;;;13.00;99.90;;;;;;5031178;28;20414;-52
2021/08/27 02:16:06;;;;;;;5.10;4.70;;;12.90;99.90;;;;;;5017569;28;20211;-52
2021/08/27 02:18:33;;;;;;;5.53;5.03;;;12.90;99.90;;;;;;5029207;28;20859;-54
2021/08/27 02:21:01;;;;;;;5.30;4.80;;;12.90;99.90;;;;;;5026467;28;21107;-51
2021/08/27 02:23:27;;;;;;;5.07;4.60;;;12.80;99.90;;;;;;5030371;28;20515;-54
2021/08/27 02:25:54;;;;;;;5.00;4.50;;;12.80;99.90;;;;;;5028820;28;20445;-52
2021/08/27 02:28:20;;;;;;;4.97;4.47;;;12.90;99.90;;;;;;5028783;28;20507;-48
2021/08/27 02:30:47;;;;;;;5.30;4.80;;;12.80;99.90;;;;;;5024364;28;20505;-54
2021/08/27 02:33:14;;;;;;;5.20;4.70;;;12.90;99.90;;;;;;5030005;28;20433;-52
2021/08/27 02:35:41;;;;;;;5.67;5.13;;;12.90;99.90;;;;;;5025016;28;20979;-52
2021/08/27 02:38:11;;;;;;;6.13;5.20;;;12.90;99.90;;;;;;5029663;28;20421;-50
2021/08/27 02:40:37;;;;;;;8.27;5.50;;;12.90;99.90;;;;;;5023799;28;20519;-52
2021/08/27 02:43:02;;;;;;;5.50;5.00;;;12.90;99.90;;;;;;5028917;28;20418;-53
2021/08/27 02:45:28;;;;;;;5.90;5.30;;;13.00;99.90;;;;;;5029307;28;20336;-53
2021/08/27 02:47:54;;;;;;;6.00;5.47;;;13.00;99.90;;;;;;5030022;28;20657;-55
2021/08/27 02:50:20;;;;;;;8.47;5.97;;;13.00;99.90;;;;;;5028587;28;20480;-55
2021/08/27 02:53:01;;;;;;;6.70;6.10;;;12.90;99.90;;;;;;5028885;28;20187;-53
2021/08/27 02:55:35;;;;;;;5.93;5.33;;;12.90;99.90;;;;;;5027590;28;20179;-54
2021/08/27 02:58:22;;;;;;;6.50;5.90;;;13.00;99.90;;;;;;5018185;28;20440;-53
2021/08/27 03:00:55;;;;;;;7.00;6.30;;;12.90;99.90;;;;;;5027716;28;20481;-50
2021/08/27 03:03:24;;;;;;;6.77;6.17;;;12.90;99.90;;;;;;5027385;28;20440;-54
2021/08/27 03:05:54;;;;;;;6.50;5.90;;;12.90;99.90;;;;;;5030290;28;20471;-54
2021/08/27 03:08:23;;;;;;;7.03;6.33;;;12.90;99.90;;;;;;5025929;28;20457;-50
2021/08/27 03:11:02;;;;;;;6.73;6.10;;;12.90;99.90;;;;;;5017442;28;20485;-53
2021/08/27 03:13:42;;;;;;;8.40;6.70;;;13.00;99.90;;;;;;5015592;28;20519;-56
2021/08/27 03:16:11;;;;;;;7.10;6.40;;;13.00;99.90;;;;;;5026675;28;20568;-54
2021/08/27 03:19:08;;;;;;;6.67;6.07;;;13.00;99.90;;;;;;5028750;28;20425;-52
2021/08/27 03:21:53;;;;;;;6.70;6.00;;;13.00;99.90;;;;;;5020736;28;20558;-56
2021/08/27 03:24:34;;;;;;;6.93;6.30;;;13.00;99.90;;;;;;5023092;28;21048;-52
2021/08/27 03:27:08;;;;;;;6.67;6.07;;;13.00;99.90;;;;;;5026901;28;20446;-55
2021/08/27 03:29:39;;;;;;;6.40;5.80;;;13.00;99.90;;;;;;5023769;28;20443;-54
2021/08/27 03:32:06;;;;;;;6.47;5.80;;;13.00;99.90;;;;;;5028017;28;20473;-48
2021/08/27 03:34:34;;;;;;;6.20;5.60;;;13.00;99.90;;;;;;5028180;28;20586;-52
2021/08/27 03:37:01;;;;;;;6.20;5.60;;;13.00;99.90;;;;;;5025701;28;20449;-51
2021/08/27 03:39:29;;;;;;;5.60;5.10;;;12.90;99.90;;;;;;5022617;28;20435;-58
2021/08/27 03:41:55;;;;;;;5.30;4.80;;;13.00;99.90;;;;;;5028269;28;20430;-50
2021/08/27 03:44:21;;;;;;;5.47;5.07;;;12.90;99.90;;;;;;5028215;28;20436;-52
2021/08/27 03:46:47;;;;;;;5.30;4.80;;;12.90;99.90;;;;;;5029263;28;21004;-52
2021/08/27 03:49:15;;;;;;;5.70;4.87;;;12.90;99.90;;;;;;5018800;28;20487;-54
2021/08/27 03:51:42;;;;;;;6.30;5.70;;;12.80;99.90;;;;;;5027429;28;20453;-53
2021/08/27 03:54:08;;;;;;;6.20;5.60;;;12.80;99.90;;;;;;5021730;28;20442;-51
2021/08/27 03:56:34;;;;;;;5.63;5.13;;;12.90;99.90;;;;;;5027726;28;20465;-54
2021/08/27 03:59:01;;;;;;;8.37;5.83;;;12.80;99.90;;;;;;5028941;28;20442;-51
2021/08/27 04:01:28;;;;;;;6.30;5.70;;;12.90;99.90;;;;;;5026622;28;20209;-48
2021/08/27 04:03:54;;;;;;;6.30;5.50;;;12.90;99.90;;;;;;5027533;28;20417;-49
2021/08/27 04:06:19;;;;;;;5.97;5.37;;;12.90;99.90;;;;;;5027797;28;20484;-50
2021/08/27 04:08:45;;;;;;;6.60;6.00;;;12.90;99.90;;;;;;5025344;28;20260;-53
2021/08/27 04:11:14;;;;;;;5.80;5.30;;;12.90;99.90;;;;;;5028163;28;20207;-51
2021/08/27 04:13:40;;;;;;;6.40;5.70;;;13.00;99.90;;;;;;5028140;28;20176;-57
2021/08/27 04:16:05;;;;;;;6.43;5.83;;;13.00;99.90;;;;;;5025937;28;20439;-52
2021/08/27 04:18:31;;;;;;;6.90;6.20;;;12.90;99.90;;;;;;5023466;28;20441;-51
2021/08/27 04:20:57;;;;;;;7.67;6.90;;;12.90;99.90;;;;;;5020391;28;20190;-51
2021/08/27 04:23:24;;;;;;;8.20;7.40;;;13.00;99.90;;;;;;5017863;28;20229;-54
2021/08/27 04:25:50;;;;;;;8.30;7.50;;;13.00;99.90;;;;;;5019066;28;20444;-54
2021/08/27 04:28:16;;;;;;;9.90;8.70;;;12.90;99.90;;;;;;5017614;28;20538;-53
2021/08/27 04:30:42;;;;;;;8.50;7.70;;;13.00;99.90;;;;;;5019382;28;20560;-53
2021/08/27 04:33:07;;;;;;;8.70;7.90;;;13.00;99.90;;;;;;5019838;28;20784;-55
2021/08/27 04:35:33;;;;;;;8.53;7.70;;;13.00;99.90;;;;;;5019535;28;20175;-51
2021/08/27 04:37:58;;;;;;;11.20;8.17;;;13.00;99.90;;;;;;5019313;28;20170;-51
2021/08/27 04:40:24;;;;;;;9.70;8.70;;;13.00;99.90;;;;;;5018432;28;20179;-54
2021/08/27 04:42:50;;;;;;;10.70;9.60;;;13.00;99.90;;;;;;5024713;28;20237;-54
2021/08/27 04:45:15;;;;;;;9.57;8.67;;;13.10;99.90;;;;;;5024286;28;20193;-54
2021/08/27 04:47:41;;;;;;;10.93;9.83;;;13.10;99.90;;;;;;5028650;28;20505;-54
2021/08/27 04:50:09;;;;;;;12.33;9.90;;;13.10;99.90;;;;;;5025591;28;20554;-51
2021/08/27 04:52:35;;;;;;;10.80;9.77;;;13.20;99.90;;;;;;5029060;28;20175;-56
2021/08/27 04:55:00;;;;;;;9.63;8.17;;;13.10;99.90;;;;;;5028246;28;20517;-52
2021/08/27 04:57:26;;;;;;;8.80;7.90;;;13.20;99.90;;;;;;5024755;28;20948;-56
2021/08/27 04:59:52;;;;;;;8.17;7.37;;;13.10;99.90;;;;;;5028131;28;20673;-56
2021/08/27 05:02:18;;;;;;;7.47;6.77;;;13.10;99.90;;;;;;5027211;28;20191;-59
2021/08/27 05:04:43;;;;;;;9.30;8.40;;;13.00;99.90;;;;;;5031704;28;20463;-55
2021/08/27 05:07:09;;;;;;;9.20;8.27;;;13.00;99.90;;;;;;5032382;28;20187;-55
2021/08/27 05:09:35;;;;;;;10.87;9.33;;;13.00;99.90;;;;;;5031099;28;20175;-52
2021/08/27 05:12:01;;;;;;;12.57;10.80;;;13.10;99.90;;;;;;5021362;28;20456;-54
2021/08/27 05:14:27;;;;;;;9.67;8.67;;;13.10;99.90;;;;;;5032117;28;20187;-56
2021/08/27 05:16:52;;;;;;;11.53;10.33;;;13.10;99.90;;;;;;5031813;28;20501;-54
2021/08/27 05:19:18;;;;;;;10.30;9.30;;;13.10;99.90;;;;;;5026538;28;20190;-52
2021/08/27 05:21:44;;;;;;;10.03;8.93;;;13.10;99.90;;;;;;5030165;28;20183;-52
2021/08/27 05:24:10;;;;;;;10.00;9.00;;;13.10;99.90;;;;;;5017039;28;20731;-54
2021/08/27 05:26:36;;;;;;;9.77;8.80;;;13.20;99.90;;;;;;5022277;28;20433;-55
2021/08/27 05:29:03;;;;;;;9.40;8.47;;;13.20;99.90;;;;;;5031697;28;20175;-54
2021/08/27 05:31:29;;;;;;;8.30;7.43;;;13.30;99.90;;;;;;5031602;28;20603;-50
2021/08/27 05:33:55;;;;;;;9.27;8.30;;;13.40;99.90;;;;;;5031376;28;20430;-55
2021/08/27 05:36:20;;;;;;;9.20;8.30;;;13.40;99.90;;;;;;5031681;28;20417;-55
2021/08/27 05:38:47;;;;;;;8.80;7.70;;;13.50;99.90;;;;;;5029052;28;20317;-55
2021/08/27 05:41:13;;;;;;;9.03;8.13;;;13.50;99.90;;;;;;5010340;28;20202;-56
2021/08/27 05:43:38;;;;;;;8.50;7.70;;;13.60;99.90;;;;;;5018297;28;20433;-55
2021/08/27 05:46:04;;;;;;;8.20;7.40;;;13.60;99.90;;;;;;5021577;28;20187;-55
2021/08/27 05:48:30;;;;;;;8.13;7.30;;;13.50;99.90;;;;;;5030749;28;20182;-52
2021/08/27 05:50:55;;;;;;;8.70;7.80;;;13.50;99.90;;;;;;5031504;28;20219;-56
2021/08/27 05:53:21;;;;;;;8.73;7.93;;;13.60;99.90;;;;;;5032503;28;20182;-55
2021/08/27 05:55:47;;;;;;;8.37;7.57;;;13.60;99.90;;;;;;5032905;28;20183;-55
2021/08/27 05:58:12;;;;;;;10.03;8.93;;;13.60;99.90;;;;;;5027628;28;20176;-55
2021/08/27 06:00:38;;;;;;;9.47;8.57;;;13.60;99.90;;;;;;5024499;28;20249;-56
2021/08/27 06:03:03;;;;;;;9.90;8.90;;;13.70;99.90;;;;;;5014019;28;20194;-53
2021/08/27 06:05:29;;;;;;;9.97;9.07;;;13.70;99.90;;;;;;5012820;28;20261;-57
2021/08/27 06:07:55;;;;;;;10.60;9.60;;;13.80;99.90;;;;;;5027009;28;20187;-52
2021/08/27 06:10:20;;;;;;;10.20;9.20;;;13.80;99.90;;;;;;5020477;28;20600;-53
2021/08/27 06:12:46;;;;;;;10.70;9.70;;;13.80;99.90;;;;;;5013028;28;20219;-51
2021/08/27 06:15:14;;;;;;;9.80;8.80;;;13.80;99.90;;;;;;5028220;28;20175;-53
2021/08/27 06:17:40;;;;;;;9.30;8.40;;;13.70;99.90;;;;;;5032420;28;20182;-54
2021/08/27 06:20:07;;;;;;;10.53;9.40;;;13.70;99.90;;;;;;5031889;28;20417;-53
2021/08/27 06:22:33;;;;;;;10.40;9.40;;;13.70;99.90;;;;;;5032861;28;20421;-56
2021/08/27 06:24:59;;;;;;;10.77;9.77;;;13.70;99.90;;;;;;5031914;28;20432;-54
2021/08/27 06:27:24;;;;;;;10.27;9.10;;;13.60;99.90;;;;;;5031312;28;20434;-58
2021/08/27 06:29:50;;;;;;;10.53;9.53;;;13.60;99.90;;;;;;5031080;28;20225;-51
2021/08/27 06:32:15;;;;;;;9.93;8.93;;;13.70;99.90;;;;;;5032339;28;20199;-54
2021/08/27 06:34:41;;;;;;;11.57;9.97;;;13.70;99.90;;;;;;5031898;28;20172;-52
2021/08/27 06:37:06;;;;;;;11.70;9.33;;;13.80;99.90;;;;;;5031524;28;20233;-53
2021/08/27 06:39:32;;;;;;;10.63;9.53;;;13.80;99.90;;;;;;5018656;28;20207;-49
2021/08/27 06:41:57;;;;;;;11.27;10.17;;;13.90;99.90;;;;;;5021621;28;20197;-52
2021/08/27 06:44:23;;;;;;;11.10;10.03;;;13.90;99.90;;;;;;5030004;28;20197;-56
2021/08/27 06:46:48;;;;;;;10.40;9.40;;;14.00;99.90;;;;;;5024803;28;20179;-54
2021/08/27 06:49:14;;;;;;;15.43;10.27;;;14.10;99.90;;;;;;5024597;28;20210;-57
2021/08/27 06:51:41;;;;;;;10.47;9.37;;;14.20;99.90;;;;;;5030217;28;20282;-53
2021/08/27 06:54:07;;;;;;;10.50;9.50;;;14.20;99.90;;;;;;5030572;28;20233;-55
2021/08/27 06:56:33;;;;;;;9.10;8.20;;;14.30;99.90;;;;;;5027587;28;20514;-53
2021/08/27 06:58:59;;;;;;;9.87;8.97;;;14.30;99.90;;;;;;5029641;28;20185;-54
2021/08/27 07:01:25;;;;;;;9.43;8.37;;;14.40;99.90;;;;;;5030544;28;20195;-50
2021/08/27 07:03:50;;;;;;;8.87;8.00;;;14.40;99.90;;;;;;5029614;28;20540;-54
2021/08/27 07:06:16;;;;;;;9.10;8.20;;;14.40;99.90;;;;;;5017020;28;20533;-54
2021/08/27 07:08:41;;;;;;;9.70;8.80;;;14.30;99.90;;;;;;5027089;28;20186;-53
2021/08/27 07:11:07;;;;;;;10.17;8.30;;;14.30;99.90;;;;;;5029245;28;20266;-60
2021/08/27 07:13:33;;;;;;;9.90;8.90;;;14.20;99.90;;;;;;5029607;28;20175;-55
2021/08/27 07:15:59;;;;;;;8.90;8.00;;;14.10;99.90;;;;;;5029915;28;20204;-53
2021/08/27 07:18:26;;;;;;;9.03;8.13;;;14.00;99.90;;;;;;5027787;28;20183;-55
2021/08/27 07:20:53;;;;;;;9.17;8.17;;;13.90;99.90;;;;;;5029686;28;20179;-52
2021/08/27 07:23:19;;;;;;;9.57;8.57;;;13.90;99.90;;;;;;5028353;28;20442;-54
2021/08/27 07:25:46;;;;;;;9.20;8.20;;;14.00;99.90;;;;;;5029097;28;20418;-57
2021/08/27 07:28:12;;;;;;;8.73;7.90;;;14.00;99.90;;;;;;5029692;28;20880;-57
2021/08/27 07:30:39;;;;;;;9.10;8.20;;;13.90;99.90;;;;;;5020341;28;20587;-53
2021/08/27 07:33:05;;;;;;;9.30;8.40;;;13.90;99.90;;;;;;5023605;28;20183;-56
2021/08/27 07:35:30;;;;;;;8.57;7.67;;;13.90;99.90;;;;;;5028331;28;20447;-56
2021/08/27 07:37:56;;;;;;;8.27;7.50;;;14.00;99.90;;;;;;5025410;28;20183;-55
2021/08/27 07:40:22;;;;;;;8.30;7.50;;;14.00;99.90;;;;;;5028582;28;20183;-55
2021/08/27 07:42:47;;;;;;;9.10;8.30;;;13.90;99.90;;;;;;5028922;28;20186;-57
2021/08/27 07:45:14;;;;;;;9.30;8.40;;;13.90;99.90;;;;;;5016145;28;20690;-58
2021/08/27 07:47:41;;;;;;;9.93;8.40;;;14.10;99.90;;;;;;5028628;28;20203;-59
2021/08/27 07:50:08;;;;;;;9.10;7.97;;;14.20;99.90;;;;;;5018761;28;20430;-56
2021/08/27 07:52:33;;;;;;;9.00;8.20;;;14.30;99.90;;;;;;5028951;28;20414;-55
2021/08/27 07:54:59;;;;;;;7.90;7.20;;;14.30;99.90;;;;;;5026928;28;20495;-58
2021/08/27 07:57:25;;;;;;;8.43;7.63;;;14.30;99.90;;;;;;5028611;28;20183;-57
2021/08/27 07:59:50;;;;;;;8.17;7.40;;;14.30;99.90;;;;;;5029015;28;20242;-56
2021/08/27 08:02:16;;;;;;;8.63;7.83;;;14.30;99.90;;;;;;5028379;28;20198;-53
2021/08/27 08:04:42;;;;;;;8.50;7.70;;;14.30;99.90;;;;;;5028395;28;20226;-56
2021/08/27 08:07:08;;;;;;;7.83;7.13;;;14.30;99.90;;;;;;5028128;28;20572;-60
2021/08/27 08:09:34;;;;;;;8.10;7.30;;;14.30;99.90;;;;;;5028175;28;20447;-57
2021/08/27 08:12:00;;;;;;;7.97;7.17;;;14.20;99.90;;;;;;5028314;28;20453;-56
2021/08/27 08:14:25;;;;;;;8.90;7.57;;;14.10;99.90;;;;;;5019270;28;20725;-57
2021/08/27 08:16:51;;;;;;;7.50;6.80;;;14.00;99.90;;;;;;5028620;28;20178;-59
2021/08/27 08:19:16;;;;;;;7.57;6.77;;;14.00;99.90;;;;;;5020991;28;20180;-55
2021/08/27 08:21:42;;;;;;;7.87;6.27;;;13.90;99.90;;;;;;5028663;28;20187;-58
2021/08/27 08:24:08;;;;;;;7.67;6.87;;;13.90;99.90;;;;;;5023801;28;20183;-52
2021/08/27 08:26:33;;;;;;;7.97;7.17;;;13.90;99.90;;;;;;5026896;28;20298;-52
2021/08/27 08:29:00;;;;;;;8.30;7.50;;;14.00;99.90;;;;;;5027467;28;20236;-53
2021/08/27 08:31:26;;;;;;;8.13;7.33;;;13.90;99.90;;;;;;5027922;28;20473;-57
2021/08/27 08:33:53;;;;;;;7.93;7.13;;;14.00;99.90;;;;;;5029308;28;20430;-55
2021/08/27 08:36:20;;;;;;;7.50;6.80;;;14.10;99.90;;;;;;5025460;28;20465;-59
2021/08/27 08:38:47;;;;;;;6.77;6.17;;;14.20;99.90;;;;;;5025771;28;20483;-57
2021/08/27 08:41:16;;;;;;;6.30;5.70;;;14.10;99.90;;;;;;5031474;28;20784;-56
2021/08/27 08:43:44;;;;;;;6.03;5.50;;;14.20;99.90;;;;;;5020767;28;20505;-53
2021/08/27 08:46:10;;;;;;;6.37;5.83;;;14.20;99.90;;;;;;5030007;28;20409;-57
2021/08/27 08:48:37;;;;;;;7.07;6.40;;;14.20;99.90;;;;;;5031831;28;20841;-59
2021/08/27 08:51:05;;;;;;;7.57;6.87;;;14.20;99.90;;;;;;5030704;28;20511;-56
2021/08/27 08:53:34;;;;;;;7.20;6.50;;;14.10;99.90;;;;;;5027576;28;20417;-55
2021/08/27 08:56:01;;;;;;;7.60;6.90;;;14.00;99.90;;;;;;5031362;28;20446;-52
2021/08/27 08:58:27;;;;;;;7.53;6.83;;;14.10;99.90;;;;;;5027090;28;20783;-57
2021/08/27 09:00:52;;;;;;;7.50;6.67;;;14.20;99.90;;;;;;5031243;28;20948;-56
2021/08/27 09:03:18;;;;;;;7.97;7.17;;;14.20;99.90;;;;;;5031335;28;20559;-58
2021/08/27 09:05:44;;;;;;;7.60;6.80;;;14.20;99.90;;;;;;5025182;28;20179;-60
2021/08/27 09:08:09;;;;;;;7.53;6.83;;;14.10;99.90;;;;;;5029905;28;20191;-55
2021/08/27 09:10:43;;;;;;;8.63;7.70;;;14.10;99.90;;;;;;5031160;28;20342;-57
2021/08/27 09:13:10;;;;;;;8.83;7.93;;;14.10;99.90;;;;;;5029701;28;20194;-57
2021/08/27 09:15:36;;;;;;;8.53;7.67;;;14.20;99.90;;;;;;5029546;28;20417;-53
2021/08/27 09:18:10;;;;;;;8.47;7.33;;;14.30;99.90;;;;;;5030891;28;20444;-60
2021/08/27 09:20:36;;;;;;;7.67;6.90;;;14.30;99.90;;;;;;5031063;28;20467;-61
2021/08/27 09:23:06;;;;;;;7.87;6.73;;;14.30;99.90;;;;;;5031039;28;20421;-59
2021/08/27 09:25:36;;;;;;;7.70;6.90;;;14.30;99.90;;;;;;5030793;28;20417;-59
2021/08/27 09:28:13;;;;;;;7.63;6.93;;;14.30;99.90;;;;;;5031192;28;20479;-57
2021/08/27 09:30:50;;;;;;;6.97;6.27;;;14.30;99.90;;;;;;5026985;28;20980;-56
2021/08/27 09:33:21;;;;;;;7.90;6.03;;;14.30;99.90;;;;;;5032086;28;20491;-63
2021/08/27 09:36:09;;;;;;;6.73;6.10;;;14.20;99.90;;;;;;5032847;28;20456;-55
2021/08/27 09:38:37;;;;;;;7.73;6.93;;;14.10;99.90;;;;;;5025505;28;20414;-57
2021/08/27 09:41:13;;;;;;;7.80;7.00;;;14.20;99.90;;;;;;5030722;28;20426;-55
2021/08/27 09:43:51;;;;;;;7.03;6.33;;;14.20;99.90;;;;;;5030427;28;20559;-57
2021/08/27 09:46:36;;;;;;;6.83;6.13;;;14.20;99.90;;;;;;5028612;28;20920;-58
2021/08/27 09:49:04;;;;;;;6.90;5.57;;;14.30;99.90;;;;;;5018297;28;20440;-55
2021/08/27 09:51:47;;;;;;;5.50;5.00;;;14.30;99.90;;;;;;5030093;28;20457;-58
2021/08/27 09:54:27;;;;;;;5.87;5.27;;;14.10;99.90;;;;;;5026202;28;20555;-58
2021/08/27 09:56:55;;;;;;;6.57;5.37;;;14.00;99.90;;;;;;5027089;28;20441;-56
2021/08/27 09:59:44;;;;;;;5.97;5.37;;;13.90;99.90;;;;;;5027985;28;20543;-55
2021/08/27 10:02:13;;;;;;;5.70;5.17;;;14.00;99.90;;;;;;5028861;28;20455;-59
2021/08/27 10:04:57;;;;;;;5.53;5.03;;;14.10;99.90;;;;;;5029717;28;21152;-56
2021/08/27 10:07:27;;;;;;;5.37;4.83;;;14.20;99.90;;;;;;5029709;28;20924;-55
2021/08/27 10:09:53;;;;;;;5.23;4.73;;;14.10;99.90;;;;;;5027298;28;20476;-55
2021/08/27 10:12:19;;;;;;;6.20;4.27;;;14.10;99.90;;;;;;5029673;28;20461;-56
2021/08/27 10:14:45;;;;;;;4.40;3.77;;;14.00;99.90;;;;;;5029487;28;20475;-55
2021/08/27 10:17:13;;;;;;;4.40;4.00;;;14.10;99.90;;;;;;5029247;28;20422;-58
2021/08/27 10:19:39;;;;;;;4.40;4.00;;;14.10;99.90;;;;;;5029474;28;20183;-56
2021/08/27 10:22:05;;;;;;;3.97;3.57;;;14.20;99.90;;;;;;5029632;28;20536;-54
2021/08/27 10:24:31;;;;;;;4.23;3.83;;;14.20;99.90;;;;;;5026668;28;20186;-54
2021/08/27 10:26:57;;;;;;;4.00;3.70;;;14.20;99.90;;;;;;5012225;28;20776;-55
2021/08/27 10:29:23;;;;;;;4.73;3.63;;;14.20;99.90;;;;;;5027340;28;20560;-55
2021/08/27 10:31:51;;;;;;;4.43;4.03;;;14.20;99.90;;;;;;5030069;28;20594;-58
2021/08/27 10:34:18;;;;;;;3.87;3.57;;;14.30;99.90;;;;;;5030995;28;20418;-57
2021/08/27 10:36:46;;;;;;;3.27;3.07;;;14.30;99.90;;;;;;5021936;28;20445;-57
2021/08/27 10:39:41;;;;;;;3.63;3.33;;;14.30;99.90;;;;;;5029457;28;20904;-57
2021/08/27 10:42:08;;;;;;;3.50;3.20;;;14.20;99.90;;;;;;5027332;28;20427;-57
2021/08/27 10:44:46;;;;;;;3.23;3.00;;;14.10;99.90;;;;;;5034975;28;20840;-53
2021/08/27 10:47:12;;;;;;;3.03;2.80;;;14.10;99.90;;;;;;5035892;28;20429;-55
2021/08/27 10:49:46;;;;;;;3.40;3.10;;;14.00;99.90;;;;;;5033267;28;20437;-53
2021/08/27 10:52:30;;;;;;;2.90;2.70;;;13.90;99.90;;;;;;5029158;28;20867;-52
2021/08/27 10:55:07;;;;;;;2.77;2.53;;;13.90;99.90;;;;;;5036439;28;20433;-54
2021/08/27 10:57:56;;;;;;;4.17;3.20;;;13.90;99.90;;;;;;5031703;28;20434;-56
2021/08/27 11:00:51;;;;;;;4.50;3.40;;;13.80;99.90;;;;;;5026113;28;20485;-53
2021/08/27 11:03:17;;;;;;;3.80;3.30;;;13.80;99.90;;;;;;5039679;28;20428;-55
2021/08/27 11:05:48;;;;;;;3.67;3.00;;;13.70;99.90;;;;;;5037178;28;20430;-53
2021/08/27 11:08:29;;;;;;;4.80;3.10;;;13.70;99.90;;;;;;5036781;28;20517;-51
2021/08/27 11:11:18;;;;;;;3.47;2.90;;;13.60;99.90;;;;;;5026918;28;20550;-54
2021/08/27 11:13:43;;;;;;;2.57;2.20;;;13.50;99.90;;;;;;5038154;28;20437;-54
2021/08/27 11:16:21;;;;;;;2.17;1.73;;;13.50;99.90;;;;;;5038415;28;20442;-54
2021/08/27 11:18:48;;;;;;;2.33;1.80;;;13.50;99.90;;;;;;5029216;28;20179;-54
2021/08/27 11:21:33;;;;;;;1.70;1.60;;;13.50;99.90;;;;;;5020584;28;20529;-53
2021/08/27 11:24:11;;;;;;;1.60;1.30;;;13.40;99.90;;;;;;5034272;28;20424;-51
2021/08/27 11:26:42;;;;;;;1.90;1.70;;;13.40;99.90;;;;;;5030799;28;20421;-55
2021/08/27 11:29:30;;;;;;;2.40;1.50;;;13.40;99.90;;;;;;5029193;28;20784;-56
2021/08/27 11:31:56;;;;;;;1.80;1.60;;;13.40;99.90;;;;;;5025614;28;20458;-54
2021/08/27 11:34:26;;;;;;;1.57;1.47;;;13.50;99.90;;;;;;5011135;28;20897;-56
2021/08/27 11:36:52;;;;;;;2.30;1.50;;;13.60;99.90;;;;;;5029893;28;20491;-53
2021/08/27 11:39:17;;;;;;;1.60;1.50;;;13.60;99.90;;;;;;5030596;28;20442;-55
2021/08/27 11:41:43;;;;;;;1.50;1.40;;;13.60;99.90;;;;;;5029442;28;20421;-54
2021/08/27 11:44:11;;;;;;;2.37;1.57;;;13.60;99.90;;;;;;5015031;28;20700;-53
2021/08/27 11:46:39;;;;;;;6.03;1.77;;;13.60;99.90;;;;;;5021398;28;20430;-57
2021/08/27 11:49:25;;;;;;;2.13;1.50;;;13.60;99.90;;;;;;5028828;28;20440;-51
2021/08/27 11:52:20;;;;;;;1.60;1.50;;;13.60;99.90;;;;;;5019788;28;20462;-56
2021/08/27 11:54:46;;;;;;;1.60;1.50;;;13.70;99.90;;;;;;5015742;28;20922;-52
2021/08/27 11:57:17;;;;;;;2.50;1.50;;;13.70;99.90;;;;;;5016927;28;20423;-54
2021/08/27 11:59:44;;;;;;;1.63;1.53;;;13.70;99.90;;;;;;5025853;28;20226;-52
2021/08/27 12:02:20;;;;;;;2.07;1.73;;;13.70;99.90;;;;;;5025779;28;20437;-52
2021/08/27 12:04:57;;;;;;;2.00;1.60;;;13.70;99.90;;;;;;5015642;28;20413;-53
2021/08/27 12:07:27;;;;;;;1.93;1.83;;;13.80;99.90;;;;;;5035446;28;20428;-55
2021/08/27 12:10:10;;;;;;;1.97;1.80;;;13.90;99.90;;;;;;5009135;28;20500;-53
2021/08/27 12:12:38;;;;;;;2.00;1.80;;;14.10;99.90;;;;;;5023520;28;20483;-51
2021/08/27 12:15:05;;;;;;;2.17;1.97;;;14.20;99.90;;;;;;5024892;28;20424;-53
2021/08/27 12:17:30;;;;;;;2.10;1.90;;;14.30;99.90;;;;;;5025558;28;20468;-54
2021/08/27 12:19:59;;;;;;;2.00;1.50;;;14.50;99.90;;;;;;5025672;28;20864;-56
2021/08/27 12:22:29;;;;;;;2.30;2.10;;;14.70;99.90;;;;;;5025248;28;21144;-55
2021/08/27 12:24:55;;;;;;;3.77;2.03;;;14.70;99.90;;;;;;5026098;28;20436;-53
2021/08/27 12:27:22;;;;;;;2.70;2.40;;;14.80;99.90;;;;;;5025377;28;20947;-57
2021/08/27 12:30:06;;;;;;;2.20;2.00;;;14.90;99.90;;;;;;5027187;28;20840;-55
2021/08/27 12:32:31;;;;;;;2.50;2.20;;;15.10;99.90;;;;;;5025784;28;20485;-55
2021/08/27 12:34:58;;;;;;;2.27;1.83;;;15.30;99.90;;;;;;5024440;28;20477;-54
2021/08/27 12:37:24;;;;;;;1.70;1.60;;;15.50;99.90;;;;;;5026260;28;20194;-56
2021/08/27 12:39:53;;;;;;;2.00;1.80;;;15.70;99.90;;;;;;5028384;28;20445;-51
2021/08/27 12:42:20;;;;;;;1.90;1.80;;;15.80;99.90;;;;;;5026477;28;20270;-53
2021/08/27 12:45:21;;;;;;;2.00;1.80;;;16.00;99.90;;;;;;5027251;28;20449;-54
2021/08/27 12:47:46;;;;;;;2.60;1.83;;;16.40;99.90;;;;;;4971458;28;20455;-55
2021/08/27 12:50:14;;;;;;;1.80;1.70;;;16.60;99.90;;;;;;5017174;28;20459;-55
2021/08/27 12:52:42;;;;;;;1.80;1.70;;;16.70;99.90;;;;;;5031508;28;20179;-56
2021/08/27 12:55:23;;;;;;;2.00;1.90;;;16.80;99.90;;;;;;5021025;28;20533;-52